sensor_id;sensor_type;location;lat;lon;timestamp;P1;durP1;ratioP1;P2;durP2;ratioP2
14736;SDS011;7459;53.590;10.062;2022-09-01T00:02:03;1.73;;;0.40;;
14736;SDS011;7459;53.590;10.062;2022-09-01T00:04:32;1.88;;;0.25;;
14736;SDS011;7459;53.590;10.062;2022-09-01T00:07:03;1.58;;;0.35;;
14736;SDS011;7459;53.590;10.062;2022-09-01T00:09:30;1.67;;;0.28;;
14736;SDS011;7459;53.590;10.062;2022-09-01T00:11:56;3.50;;;0.60;;
14736;SDS011;7459;53.590;10.062;2022-09-01T00:14:24;2.40;;;0.40;;
14736;SDS011;7459;53.590;10.062;2022-09-01T00:16:53;7.88;;;0.60;;
14736;SDS011;7459;53.590;10.062;2022-09-01T00:19:19;4.60;;;0.63;;
14736;SDS011;7459;53.590;10.062;2022-09-01T00:21:47;1.53;;;0.40;;
14736;SDS011;7459;53.590;10.062;2022-09-01T00:24:13;1.83;;;0.30;;
14736;SDS011;7459;53.590;10.062;2022-09-01T00:26:41;2.15;;;0.50;;
14736;SDS011;7459;53.590;10.062;2022-09-01T00:29:08;1.33;;;0.43;;
14736;SDS011;7459;53.590;10.062;2022-09-01T00:31:34;1.27;;;0.33;;
14736;SDS011;7459;53.590;10.062;2022-09-01T00:34:00;1.50;;;0.35;;
14736;SDS011;7459;53.590;10.062;2022-09-01T00:36:26;1.88;;;0.30;;
14736;SDS011;7459;53.590;10.062;2022-09-01T00:38:52;4.77;;;0.73;;
14736;SDS011;7459;53.590;10.062;2022-09-01T00:41:19;2.25;;;0.57;;
14736;SDS011;7459;53.590;10.062;2022-09-01T00:43:52;2.65;;;0.52;;
14736;SDS011;7459;53.590;10.062;2022-09-01T00:46:26;2.15;;;0.40;;
14736;SDS011;7459;53.590;10.062;2022-09-01T00:48:58;3.27;;;0.33;;
14736;SDS011;7459;53.590;10.062;2022-09-01T00:51:30;1.83;;;0.45;;
14736;SDS011;7459;53.590;10.062;2022-09-01T00:53:59;2.13;;;0.93;;
14736;SDS011;7459;53.590;10.062;2022-09-01T00:56:27;3.05;;;0.70;;
14736;SDS011;7459;53.590;10.062;2022-09-01T00:58:54;2.88;;;0.77;;
14736;SDS011;7459;53.590;10.062;2022-09-01T01:01:20;1.90;;;0.30;;
14736;SDS011;7459;53.590;10.062;2022-09-01T01:03:47;2.22;;;0.50;;
14736;SDS011;7459;53.590;10.062;2022-09-01T01:06:14;2.47;;;0.73;;
14736;SDS011;7459;53.590;10.062;2022-09-01T01:08:42;3.67;;;0.80;;
14736;SDS011;7459;53.590;10.062;2022-09-01T01:11:25;2.08;;;0.50;;
14736;SDS011;7459;53.590;10.062;2022-09-01T01:13:57;2.40;;;0.50;;
14736;SDS011;7459;53.590;10.062;2022-09-01T01:16:40;2.03;;;0.40;;
14736;SDS011;7459;53.590;10.062;2022-09-01T01:19:10;2.70;;;0.60;;
14736;SDS011;7459;53.590;10.062;2022-09-01T01:22:12;2.40;;;0.60;;
14736;SDS011;7459;53.590;10.062;2022-09-01T01:25:20;2.42;;;0.88;;
14736;SDS011;7459;53.590;10.062;2022-09-01T01:27:46;2.88;;;0.50;;
14736;SDS011;7459;53.590;10.062;2022-09-01T01:30:13;2.70;;;0.50;;
14736;SDS011;7459;53.590;10.062;2022-09-01T01:32:40;2.63;;;0.60;;
14736;SDS011;7459;53.590;10.062;2022-09-01T01:35:08;2.67;;;0.52;;
14736;SDS011;7459;53.590;10.062;2022-09-01T01:37:41;1.77;;;0.47;;
14736;SDS011;7459;53.590;10.062;2022-09-01T01:40:11;3.30;;;0.50;;
14736;SDS011;7459;53.590;10.062;2022-09-01T01:42:43;2.25;;;0.40;;
14736;SDS011;7459;53.590;10.062;2022-09-01T01:45:10;1.70;;;0.40;;
14736;SDS011;7459;53.590;10.062;2022-09-01T01:47:44;2.53;;;0.57;;
14736;SDS011;7459;53.590;10.062;2022-09-01T01:50:15;2.38;;;0.50;;
14736;SDS011;7459;53.590;10.062;2022-09-01T01:52:41;3.17;;;0.55;;
14736;SDS011;7459;53.590;10.062;2022-09-01T01:55:07;2.63;;;0.70;;
14736;SDS011;7459;53.590;10.062;2022-09-01T01:57:36;2.30;;;0.68;;
14736;SDS011;7459;53.590;10.062;2022-09-01T02:00:12;3.30;;;0.50;;
14736;SDS011;7459;53.590;10.062;2022-09-01T02:02:43;2.03;;;0.63;;
14736;SDS011;7459;53.590;10.062;2022-09-01T02:05:30;2.13;;;0.33;;
14736;SDS011;7459;53.590;10.062;2022-09-01T02:08:00;2.88;;;0.52;;
14736;SDS011;7459;53.590;10.062;2022-09-01T02:10:39;2.30;;;0.70;;
14736;SDS011;7459;53.590;10.062;2022-09-01T02:13:08;2.58;;;0.60;;
14736;SDS011;7459;53.590;10.062;2022-09-01T02:15:41;2.53;;;0.70;;
14736;SDS011;7459;53.590;10.062;2022-09-01T02:18:22;1.47;;;0.33;;
14736;SDS011;7459;53.590;10.062;2022-09-01T02:20:58;2.83;;;0.50;;
14736;SDS011;7459;53.590;10.062;2022-09-01T02:23:24;2.78;;;0.55;;
14736;SDS011;7459;53.590;10.062;2022-09-01T02:25:51;3.13;;;0.70;;
14736;SDS011;7459;53.590;10.062;2022-09-01T02:28:21;2.50;;;0.60;;
14736;SDS011;7459;53.590;10.062;2022-09-01T02:30:48;2.23;;;0.50;;
14736;SDS011;7459;53.590;10.062;2022-09-01T02:33:17;3.33;;;0.70;;
14736;SDS011;7459;53.590;10.062;2022-09-01T02:35:45;4.60;;;1.00;;
14736;SDS011;7459;53.590;10.062;2022-09-01T02:38:14;2.25;;;0.60;;
14736;SDS011;7459;53.590;10.062;2022-09-01T02:40:42;2.80;;;0.50;;
14736;SDS011;7459;53.590;10.062;2022-09-01T02:43:09;3.63;;;0.90;;
14736;SDS011;7459;53.590;10.062;2022-09-01T02:45:36;2.85;;;0.80;;
14736;SDS011;7459;53.590;10.062;2022-09-01T02:48:03;3.90;;;0.50;;
14736;SDS011;7459;53.590;10.062;2022-09-01T02:50:34;1.60;;;0.40;;
14736;SDS011;7459;53.590;10.062;2022-09-01T02:53:05;2.60;;;0.47;;
14736;SDS011;7459;53.590;10.062;2022-09-01T02:55:34;2.07;;;0.70;;
14736;SDS011;7459;53.590;10.062;2022-09-01T02:58:01;3.25;;;0.82;;
14736;SDS011;7459;53.590;10.062;2022-09-01T03:00:27;3.20;;;0.60;;
14736;SDS011;7459;53.590;10.062;2022-09-01T03:02:57;2.38;;;0.60;;
14736;SDS011;7459;53.590;10.062;2022-09-01T03:05:29;2.50;;;0.65;;
14736;SDS011;7459;53.590;10.062;2022-09-01T03:07:57;2.20;;;0.60;;
14736;SDS011;7459;53.590;10.062;2022-09-01T03:10:27;3.40;;;0.68;;
14736;SDS011;7459;53.590;10.062;2022-09-01T03:13:04;3.10;;;0.80;;
14736;SDS011;7459;53.590;10.062;2022-09-01T03:15:37;3.58;;;0.93;;
14736;SDS011;7459;53.590;10.062;2022-09-01T03:18:03;2.28;;;0.50;;
14736;SDS011;7459;53.590;10.062;2022-09-01T03:20:32;2.00;;;0.53;;
14736;SDS011;7459;53.590;10.062;2022-09-01T03:23:00;3.55;;;0.70;;
14736;SDS011;7459;53.590;10.062;2022-09-01T03:25:29;2.15;;;0.60;;
14736;SDS011;7459;53.590;10.062;2022-09-01T03:27:56;2.42;;;0.60;;
14736;SDS011;7459;53.590;10.062;2022-09-01T03:30:23;3.63;;;1.08;;
14736;SDS011;7459;53.590;10.062;2022-09-01T03:32:50;6.10;;;0.80;;
14736;SDS011;7459;53.590;10.062;2022-09-01T03:35:16;2.40;;;0.70;;
14736;SDS011;7459;53.590;10.062;2022-09-01T03:37:42;5.35;;;0.90;;
14736;SDS011;7459;53.590;10.062;2022-09-01T03:40:09;2.53;;;0.93;;
14736;SDS011;7459;53.590;10.062;2022-09-01T03:42:37;3.78;;;1.02;;
14736;SDS011;7459;53.590;10.062;2022-09-01T03:45:04;4.00;;;0.60;;
14736;SDS011;7459;53.590;10.062;2022-09-01T03:47:37;4.07;;;0.77;;
14736;SDS011;7459;53.590;10.062;2022-09-01T03:50:09;3.67;;;1.00;;
14736;SDS011;7459;53.590;10.062;2022-09-01T03:52:47;2.53;;;0.83;;
14736;SDS011;7459;53.590;10.062;2022-09-01T03:55:22;2.53;;;0.90;;
14736;SDS011;7459;53.590;10.062;2022-09-01T03:57:56;3.72;;;1.20;;
14736;SDS011;7459;53.590;10.062;2022-09-01T04:00:25;2.20;;;0.73;;
14736;SDS011;7459;53.590;10.062;2022-09-01T04:02:54;2.65;;;0.80;;
14736;SDS011;7459;53.590;10.062;2022-09-01T04:05:23;2.37;;;0.70;;
14736;SDS011;7459;53.590;10.062;2022-09-01T04:07:53;5.68;;;0.80;;
14736;SDS011;7459;53.590;10.062;2022-09-01T04:10:22;2.33;;;0.60;;
14736;SDS011;7459;53.590;10.062;2022-09-01T04:12:48;1.95;;;0.40;;
14736;SDS011;7459;53.590;10.062;2022-09-01T04:15:14;2.53;;;0.50;;
14736;SDS011;7459;53.590;10.062;2022-09-01T04:17:45;2.13;;;0.70;;
14736;SDS011;7459;53.590;10.062;2022-09-01T04:20:53;4.50;;;0.60;;
14736;SDS011;7459;53.590;10.062;2022-09-01T04:23:30;2.53;;;0.80;;
14736;SDS011;7459;53.590;10.062;2022-09-01T04:28:33;3.20;;;0.60;;
14736;SDS011;7459;53.590;10.062;2022-09-01T04:31:06;3.47;;;0.60;;
14736;SDS011;7459;53.590;10.062;2022-09-01T04:33:38;4.53;;;0.82;;
14736;SDS011;7459;53.590;10.062;2022-09-01T04:36:05;3.13;;;1.10;;
14736;SDS011;7459;53.590;10.062;2022-09-01T04:38:46;3.33;;;1.15;;
14736;SDS011;7459;53.590;10.062;2022-09-01T04:41:26;3.97;;;0.90;;
14736;SDS011;7459;53.590;10.062;2022-09-01T04:43:56;2.50;;;0.80;;
14736;SDS011;7459;53.590;10.062;2022-09-01T04:46:24;3.22;;;0.75;;
14736;SDS011;7459;53.590;10.062;2022-09-01T04:48:53;2.72;;;0.85;;
14736;SDS011;7459;53.590;10.062;2022-09-01T04:51:21;3.25;;;0.93;;
14736;SDS011;7459;53.590;10.062;2022-09-01T04:53:52;4.28;;;1.10;;
14736;SDS011;7459;53.590;10.062;2022-09-01T04:56:21;2.80;;;1.17;;
14736;SDS011;7459;53.590;10.062;2022-09-01T04:58:50;2.53;;;0.80;;
14736;SDS011;7459;53.590;10.062;2022-09-01T05:01:22;4.28;;;1.30;;
14736;SDS011;7459;53.590;10.062;2022-09-01T05:03:50;4.53;;;1.10;;
14736;SDS011;7459;53.590;10.062;2022-09-01T05:06:25;3.05;;;1.23;;
14736;SDS011;7459;53.590;10.062;2022-09-01T05:08:57;3.23;;;1.03;;
14736;SDS011;7459;53.590;10.062;2022-09-01T05:11:23;3.47;;;1.00;;
14736;SDS011;7459;53.590;10.062;2022-09-01T05:13:51;3.92;;;0.90;;
14736;SDS011;7459;53.590;10.062;2022-09-01T05:16:21;3.17;;;0.90;;
14736;SDS011;7459;53.590;10.062;2022-09-01T05:18:50;4.90;;;1.20;;
14736;SDS011;7459;53.590;10.062;2022-09-01T05:21:20;2.30;;;0.85;;
14736;SDS011;7459;53.590;10.062;2022-09-01T05:23:48;6.15;;;0.98;;
14736;SDS011;7459;53.590;10.062;2022-09-01T05:26:25;3.78;;;1.13;;
14736;SDS011;7459;53.590;10.062;2022-09-01T05:28:57;4.47;;;0.88;;
14736;SDS011;7459;53.590;10.062;2022-09-01T05:31:26;6.30;;;1.10;;
14736;SDS011;7459;53.590;10.062;2022-09-01T05:33:57;4.85;;;1.10;;
14736;SDS011;7459;53.590;10.062;2022-09-01T05:36:24;3.70;;;0.85;;
14736;SDS011;7459;53.590;10.062;2022-09-01T05:38:50;3.40;;;1.10;;
14736;SDS011;7459;53.590;10.062;2022-09-01T05:41:16;3.93;;;1.17;;
14736;SDS011;7459;53.590;10.062;2022-09-01T05:43:45;3.88;;;0.90;;
14736;SDS011;7459;53.590;10.062;2022-09-01T05:46:15;7.75;;;2.15;;
14736;SDS011;7459;53.590;10.062;2022-09-01T05:48:45;4.15;;;1.20;;
14736;SDS011;7459;53.590;10.062;2022-09-01T05:51:13;2.90;;;1.05;;
14736;SDS011;7459;53.590;10.062;2022-09-01T05:53:43;4.17;;;1.20;;
14736;SDS011;7459;53.590;10.062;2022-09-01T05:56:15;3.33;;;0.95;;
14736;SDS011;7459;53.590;10.062;2022-09-01T05:58:43;2.80;;;0.80;;
14736;SDS011;7459;53.590;10.062;2022-09-01T06:01:15;3.08;;;0.90;;
14736;SDS011;7459;53.590;10.062;2022-09-01T06:03:46;5.78;;;0.90;;
14736;SDS011;7459;53.590;10.062;2022-09-01T06:06:20;3.10;;;0.80;;
14736;SDS011;7459;53.590;10.062;2022-09-01T06:08:49;5.35;;;1.00;;
14736;SDS011;7459;53.590;10.062;2022-09-01T06:11:17;3.28;;;0.82;;
14736;SDS011;7459;53.590;10.062;2022-09-01T06:13:43;3.88;;;0.80;;
14736;SDS011;7459;53.590;10.062;2022-09-01T06:16:11;5.57;;;0.82;;
14736;SDS011;7459;53.590;10.062;2022-09-01T06:18:40;4.13;;;0.60;;
14736;SDS011;7459;53.590;10.062;2022-09-01T06:21:07;3.28;;;0.43;;
14736;SDS011;7459;53.590;10.062;2022-09-01T06:23:38;3.58;;;0.43;;
14736;SDS011;7459;53.590;10.062;2022-09-01T06:28:57;2.13;;;0.60;;
14736;SDS011;7459;53.590;10.062;2022-09-01T06:31:28;4.10;;;0.73;;
14736;SDS011;7459;53.590;10.062;2022-09-01T06:33:59;4.72;;;0.40;;
14736;SDS011;7459;53.590;10.062;2022-09-01T06:36:27;1.73;;;0.50;;
14736;SDS011;7459;53.590;10.062;2022-09-01T06:38:56;2.10;;;0.65;;
14736;SDS011;7459;53.590;10.062;2022-09-01T06:41:25;4.07;;;0.52;;
14736;SDS011;7459;53.590;10.062;2022-09-01T06:43:52;7.43;;;0.60;;
14736;SDS011;7459;53.590;10.062;2022-09-01T06:46:19;4.13;;;0.52;;
14736;SDS011;7459;53.590;10.062;2022-09-01T06:48:47;4.45;;;0.50;;
14736;SDS011;7459;53.590;10.062;2022-09-01T06:51:15;3.92;;;0.80;;
14736;SDS011;7459;53.590;10.062;2022-09-01T06:53:45;3.20;;;0.82;;
14736;SDS011;7459;53.590;10.062;2022-09-01T06:56:20;6.80;;;0.80;;
14736;SDS011;7459;53.590;10.062;2022-09-01T06:58:56;2.65;;;0.50;;
14736;SDS011;7459;53.590;10.062;2022-09-01T07:01:22;1.65;;;0.43;;
14736;SDS011;7459;53.590;10.062;2022-09-01T07:03:51;3.40;;;0.47;;
14736;SDS011;7459;53.590;10.062;2022-09-01T07:06:19;2.87;;;0.50;;
14736;SDS011;7459;53.590;10.062;2022-09-01T07:08:51;3.28;;;0.60;;
14736;SDS011;7459;53.590;10.062;2022-09-01T07:11:21;2.60;;;0.40;;
14736;SDS011;7459;53.590;10.062;2022-09-01T07:13:55;2.05;;;0.30;;
14736;SDS011;7459;53.590;10.062;2022-09-01T07:16:26;2.13;;;0.25;;
14736;SDS011;7459;53.590;10.062;2022-09-01T07:18:55;3.97;;;0.20;;
14736;SDS011;7459;53.590;10.062;2022-09-01T07:21:24;1.65;;;0.22;;
14736;SDS011;7459;53.590;10.062;2022-09-01T07:23:52;3.42;;;0.30;;
14736;SDS011;7459;53.590;10.062;2022-09-01T07:26:18;3.13;;;0.40;;
14736;SDS011;7459;53.590;10.062;2022-09-01T07:28:45;1.93;;;0.40;;
14736;SDS011;7459;53.590;10.062;2022-09-01T07:31:25;2.75;;;0.40;;
14736;SDS011;7459;53.590;10.062;2022-09-01T07:33:59;3.22;;;0.40;;
14736;SDS011;7459;53.590;10.062;2022-09-01T07:36:28;1.65;;;0.30;;
14736;SDS011;7459;53.590;10.062;2022-09-01T07:38:54;5.20;;;0.30;;
14736;SDS011;7459;53.590;10.062;2022-09-01T07:41:20;2.25;;;0.30;;
14736;SDS011;7459;53.590;10.062;2022-09-01T07:43:48;1.27;;;0.22;;
14736;SDS011;7459;53.590;10.062;2022-09-01T07:46:17;1.17;;;0.20;;
14736;SDS011;7459;53.590;10.062;2022-09-01T07:48:44;2.40;;;0.30;;
14736;SDS011;7459;53.590;10.062;2022-09-01T07:51:13;1.95;;;0.30;;
14736;SDS011;7459;53.590;10.062;2022-09-01T07:53:44;1.17;;;0.20;;
14736;SDS011;7459;53.590;10.062;2022-09-01T07:56:12;1.60;;;0.20;;
14736;SDS011;7459;53.590;10.062;2022-09-01T07:58:39;2.67;;;0.25;;
14736;SDS011;7459;53.590;10.062;2022-09-01T08:01:08;1.37;;;0.20;;
14736;SDS011;7459;53.590;10.062;2022-09-01T08:03:37;1.65;;;0.20;;
14736;SDS011;7459;53.590;10.062;2022-09-01T08:06:09;1.77;;;0.22;;
14736;SDS011;7459;53.590;10.062;2022-09-01T08:08:37;1.00;;;0.20;;
14736;SDS011;7459;53.590;10.062;2022-09-01T08:11:04;1.10;;;0.30;;
14736;SDS011;7459;53.590;10.062;2022-09-01T08:13:31;1.00;;;0.27;;
14736;SDS011;7459;53.590;10.062;2022-09-01T08:16:02;0.88;;;0.20;;
14736;SDS011;7459;53.590;10.062;2022-09-01T08:18:29;2.03;;;0.20;;
14736;SDS011;7459;53.590;10.062;2022-09-01T08:20:55;1.60;;;0.20;;
14736;SDS011;7459;53.590;10.062;2022-09-01T08:23:21;0.90;;;0.10;;
14736;SDS011;7459;53.590;10.062;2022-09-01T08:25:50;1.50;;;0.30;;
14736;SDS011;7459;53.590;10.062;2022-09-01T08:28:16;2.10;;;0.32;;
14736;SDS011;7459;53.590;10.062;2022-09-01T08:30:43;4.18;;;0.30;;
14736;SDS011;7459;53.590;10.062;2022-09-01T08:33:09;2.83;;;0.20;;
14736;SDS011;7459;53.590;10.062;2022-09-01T08:35:46;1.23;;;0.20;;
14736;SDS011;7459;53.590;10.062;2022-09-01T08:38:13;3.35;;;0.20;;
14736;SDS011;7459;53.590;10.062;2022-09-01T08:40:39;1.95;;;0.30;;
14736;SDS011;7459;53.590;10.062;2022-09-01T08:43:13;2.63;;;0.30;;
14736;SDS011;7459;53.590;10.062;2022-09-01T08:46:25;3.53;;;0.20;;
14736;SDS011;7459;53.590;10.062;2022-09-01T08:48:55;1.70;;;0.30;;
14736;SDS011;7459;53.590;10.062;2022-09-01T08:51:35;1.20;;;0.15;;
14736;SDS011;7459;53.590;10.062;2022-09-01T08:57:10;1.77;;;0.25;;
14736;SDS011;7459;53.590;10.062;2022-09-01T08:59:43;2.40;;;0.27;;
14736;SDS011;7459;53.590;10.062;2022-09-01T09:05:07;1.55;;;0.25;;
14736;SDS011;7459;53.590;10.062;2022-09-01T09:10:57;1.47;;;0.20;;
14736;SDS011;7459;53.590;10.062;2022-09-01T09:21:41;1.33;;;0.20;;
14736;SDS011;7459;53.590;10.062;2022-09-01T09:29:55;1.30;;;0.20;;
14736;SDS011;7459;53.590;10.062;2022-09-01T09:37:51;1.73;;;0.20;;
14736;SDS011;7459;53.590;10.062;2022-09-01T09:40:22;1.20;;;0.20;;
14736;SDS011;7459;53.590;10.062;2022-09-01T09:45:23;2.75;;;0.20;;
14736;SDS011;7459;53.590;10.062;2022-09-01T09:47:49;1.15;;;0.20;;
14736;SDS011;7459;53.590;10.062;2022-09-01T09:50:20;1.10;;;0.40;;
14736;SDS011;7459;53.590;10.062;2022-09-01T09:52:53;2.95;;;0.40;;
14736;SDS011;7459;53.590;10.062;2022-09-01T09:55:55;2.05;;;0.40;;
14736;SDS011;7459;53.590;10.062;2022-09-01T09:58:48;1.73;;;0.20;;
14736;SDS011;7459;53.590;10.062;2022-09-01T10:03:48;1.47;;;0.30;;
14736;SDS011;7459;53.590;10.062;2022-09-01T10:06:41;0.90;;;0.20;;
14736;SDS011;7459;53.590;10.062;2022-09-01T10:09:15;2.72;;;0.20;;
14736;SDS011;7459;53.590;10.062;2022-09-01T10:12:00;3.67;;;0.20;;
14736;SDS011;7459;53.590;10.062;2022-09-01T10:14:32;2.33;;;0.50;;
14736;SDS011;7459;53.590;10.062;2022-09-01T10:17:13;1.23;;;0.10;;
14736;SDS011;7459;53.590;10.062;2022-09-01T10:19:58;1.35;;;0.30;;
14736;SDS011;7459;53.590;10.062;2022-09-01T10:22:38;2.13;;;0.32;;
14736;SDS011;7459;53.590;10.062;2022-09-01T10:25:05;0.80;;;0.10;;
14736;SDS011;7459;53.590;10.062;2022-09-01T10:27:46;2.33;;;0.30;;
14736;SDS011;7459;53.590;10.062;2022-09-01T10:30:38;3.77;;;0.20;;
14736;SDS011;7459;53.590;10.062;2022-09-01T10:33:10;1.05;;;0.10;;
14736;SDS011;7459;53.590;10.062;2022-09-01T10:35:41;2.55;;;0.60;;
14736;SDS011;7459;53.590;10.062;2022-09-01T10:38:14;1.55;;;0.30;;
14736;SDS011;7459;53.590;10.062;2022-09-01T10:40:50;1.15;;;0.20;;
14736;SDS011;7459;53.590;10.062;2022-09-01T10:45:59;3.08;;;0.30;;
14736;SDS011;7459;53.590;10.062;2022-09-01T10:48:57;5.47;;;0.28;;
14736;SDS011;7459;53.590;10.062;2022-09-01T10:53:52;1.80;;;0.20;;
14736;SDS011;7459;53.590;10.062;2022-09-01T11:20:25;1.35;;;0.20;;
14736;SDS011;7459;53.590;10.062;2022-09-01T11:30:39;1.23;;;0.35;;
14736;SDS011;7459;53.590;10.062;2022-09-01T11:34:14;1.20;;;0.30;;
14736;SDS011;7459;53.590;10.062;2022-09-01T11:47:26;2.58;;;0.30;;
14736;SDS011;7459;53.590;10.062;2022-09-01T11:52:36;1.37;;;0.20;;
14736;SDS011;7459;53.590;10.062;2022-09-01T11:55:04;1.85;;;0.20;;
14736;SDS011;7459;53.590;10.062;2022-09-01T11:57:34;1.50;;;0.25;;
14736;SDS011;7459;53.590;10.062;2022-09-01T12:00:07;3.13;;;0.40;;
14736;SDS011;7459;53.590;10.062;2022-09-01T12:02:47;1.70;;;0.20;;
14736;SDS011;7459;53.590;10.062;2022-09-01T12:05:32;1.60;;;0.40;;
14736;SDS011;7459;53.590;10.062;2022-09-01T12:08:11;3.95;;;0.30;;
14736;SDS011;7459;53.590;10.062;2022-09-01T12:10:39;1.70;;;0.40;;
14736;SDS011;7459;53.590;10.062;2022-09-01T12:15:54;2.25;;;0.20;;
14736;SDS011;7459;53.590;10.062;2022-09-01T12:18:30;3.10;;;0.27;;
14736;SDS011;7459;53.590;10.062;2022-09-01T12:21:16;1.90;;;0.30;;
14736;SDS011;7459;53.590;10.062;2022-09-01T12:24:16;2.20;;;0.20;;
14736;SDS011;7459;53.590;10.062;2022-09-01T12:26:45;1.27;;;0.20;;
14736;SDS011;7459;53.590;10.062;2022-09-01T12:29:14;3.75;;;0.40;;
14736;SDS011;7459;53.590;10.062;2022-09-01T12:31:42;1.47;;;0.20;;
14736;SDS011;7459;53.590;10.062;2022-09-01T12:37:25;1.33;;;0.15;;
14736;SDS011;7459;53.590;10.062;2022-09-01T12:39:52;2.40;;;0.30;;
14736;SDS011;7459;53.590;10.062;2022-09-01T12:44:55;3.27;;;0.30;;
14736;SDS011;7459;53.590;10.062;2022-09-01T12:52:32;3.25;;;0.20;;
14736;SDS011;7459;53.590;10.062;2022-09-01T12:57:37;3.33;;;0.20;;
14736;SDS011;7459;53.590;10.062;2022-09-01T13:02:37;2.88;;;0.30;;
14736;SDS011;7459;53.590;10.062;2022-09-01T13:05:19;1.23;;;0.40;;
14736;SDS011;7459;53.590;10.062;2022-09-01T13:07:45;2.05;;;0.52;;
14736;SDS011;7459;53.590;10.062;2022-09-01T13:10:10;1.80;;;0.20;;
14736;SDS011;7459;53.590;10.062;2022-09-01T13:12:40;1.30;;;0.20;;
14736;SDS011;7459;53.590;10.062;2022-09-01T13:15:07;3.25;;;0.35;;
14736;SDS011;7459;53.590;10.062;2022-09-01T13:17:34;2.17;;;0.30;;
14736;SDS011;7459;53.590;10.062;2022-09-01T13:19:59;3.70;;;0.30;;
14736;SDS011;7459;53.590;10.062;2022-09-01T13:22:25;5.50;;;0.20;;
14736;SDS011;7459;53.590;10.062;2022-09-01T13:24:51;1.33;;;0.28;;
14736;SDS011;7459;53.590;10.062;2022-09-01T13:27:16;3.80;;;0.33;;
14736;SDS011;7459;53.590;10.062;2022-09-01T13:29:42;2.20;;;0.20;;
14736;SDS011;7459;53.590;10.062;2022-09-01T13:32:09;2.13;;;0.20;;
14736;SDS011;7459;53.590;10.062;2022-09-01T13:34:35;2.10;;;0.30;;
14736;SDS011;7459;53.590;10.062;2022-09-01T13:37:00;3.83;;;0.43;;
14736;SDS011;7459;53.590;10.062;2022-09-01T13:39:26;2.40;;;0.20;;
14736;SDS011;7459;53.590;10.062;2022-09-01T13:41:52;5.90;;;0.47;;
14736;SDS011;7459;53.590;10.062;2022-09-01T13:44:17;9.83;;;0.50;;
14736;SDS011;7459;53.590;10.062;2022-09-01T13:46:44;6.57;;;0.70;;
14736;SDS011;7459;53.590;10.062;2022-09-01T13:49:10;5.07;;;0.43;;
14736;SDS011;7459;53.590;10.062;2022-09-01T13:51:36;4.07;;;0.20;;
14736;SDS011;7459;53.590;10.062;2022-09-01T13:54:02;1.55;;;0.30;;
14736;SDS011;7459;53.590;10.062;2022-09-01T13:56:28;2.88;;;0.30;;
14736;SDS011;7459;53.590;10.062;2022-09-01T13:58:54;3.03;;;0.30;;
14736;SDS011;7459;53.590;10.062;2022-09-01T14:01:20;3.63;;;0.35;;
14736;SDS011;7459;53.590;10.062;2022-09-01T14:03:47;2.63;;;0.40;;
14736;SDS011;7459;53.590;10.062;2022-09-01T14:06:13;2.73;;;0.50;;
14736;SDS011;7459;53.590;10.062;2022-09-01T14:08:39;1.20;;;0.40;;
14736;SDS011;7459;53.590;10.062;2022-09-01T14:11:05;2.03;;;0.47;;
14736;SDS011;7459;53.590;10.062;2022-09-01T14:13:31;6.78;;;0.40;;
14736;SDS011;7459;53.590;10.062;2022-09-01T14:15:58;3.27;;;0.37;;
14736;SDS011;7459;53.590;10.062;2022-09-01T14:18:24;4.30;;;0.70;;
14736;SDS011;7459;53.590;10.062;2022-09-01T14:20:56;3.50;;;0.30;;
14736;SDS011;7459;53.590;10.062;2022-09-01T14:23:25;1.17;;;0.20;;
14736;SDS011;7459;53.590;10.062;2022-09-01T14:25:51;2.90;;;0.20;;
14736;SDS011;7459;53.590;10.062;2022-09-01T14:28:18;2.67;;;0.20;;
14736;SDS011;7459;53.590;10.062;2022-09-01T14:30:45;14.00;;;0.40;;
14736;SDS011;7459;53.590;10.062;2022-09-01T14:33:12;2.88;;;0.30;;
14736;SDS011;7459;53.590;10.062;2022-09-01T14:35:39;3.53;;;0.30;;
14736;SDS011;7459;53.590;10.062;2022-09-01T14:38:08;3.90;;;0.20;;
14736;SDS011;7459;53.590;10.062;2022-09-01T14:40:36;3.30;;;0.32;;
14736;SDS011;7459;53.590;10.062;2022-09-01T14:43:03;2.63;;;0.50;;
14736;SDS011;7459;53.590;10.062;2022-09-01T14:45:34;2.60;;;0.30;;
14736;SDS011;7459;53.590;10.062;2022-09-01T14:48:02;2.83;;;0.30;;
14736;SDS011;7459;53.590;10.062;2022-09-01T14:50:28;2.22;;;0.20;;
14736;SDS011;7459;53.590;10.062;2022-09-01T14:52:59;2.17;;;0.35;;
14736;SDS011;7459;53.590;10.062;2022-09-01T14:55:27;3.10;;;0.40;;
14736;SDS011;7459;53.590;10.062;2022-09-01T14:57:55;8.52;;;0.30;;
14736;SDS011;7459;53.590;10.062;2022-09-01T15:00:21;4.40;;;0.30;;
14736;SDS011;7459;53.590;10.062;2022-09-01T15:02:49;2.45;;;0.28;;
14736;SDS011;7459;53.590;10.062;2022-09-01T15:05:15;1.55;;;0.20;;
14736;SDS011;7459;53.590;10.062;2022-09-01T15:07:41;2.75;;;0.22;;
14736;SDS011;7459;53.590;10.062;2022-09-01T15:10:07;1.65;;;0.30;;
14736;SDS011;7459;53.590;10.062;2022-09-01T15:12:35;7.10;;;0.30;;
14736;SDS011;7459;53.590;10.062;2022-09-01T15:15:03;1.02;;;0.20;;
14736;SDS011;7459;53.590;10.062;2022-09-01T15:17:31;5.63;;;0.20;;
14736;SDS011;7459;53.590;10.062;2022-09-01T15:19:59;2.55;;;0.13;;
14736;SDS011;7459;53.590;10.062;2022-09-01T15:22:46;1.40;;;0.20;;
14736;SDS011;7459;53.590;10.062;2022-09-01T15:25:13;2.60;;;0.20;;
14736;SDS011;7459;53.590;10.062;2022-09-01T15:27:40;2.08;;;0.22;;
14736;SDS011;7459;53.590;10.062;2022-09-01T15:30:07;2.88;;;0.30;;
14736;SDS011;7459;53.590;10.062;2022-09-01T15:32:38;4.15;;;0.50;;
14736;SDS011;7459;53.590;10.062;2022-09-01T15:35:06;2.25;;;0.32;;
14736;SDS011;7459;53.590;10.062;2022-09-01T15:37:33;4.20;;;0.30;;
14736;SDS011;7459;53.590;10.062;2022-09-01T15:39:59;3.00;;;0.30;;
14736;SDS011;7459;53.590;10.062;2022-09-01T15:42:24;3.13;;;0.32;;
14736;SDS011;7459;53.590;10.062;2022-09-01T15:44:51;3.57;;;0.30;;
14736;SDS011;7459;53.590;10.062;2022-09-01T15:47:16;3.67;;;0.22;;
14736;SDS011;7459;53.590;10.062;2022-09-01T15:49:42;6.20;;;0.20;;
14736;SDS011;7459;53.590;10.062;2022-09-01T15:52:08;2.63;;;0.30;;
14736;SDS011;7459;53.590;10.062;2022-09-01T15:54:36;2.75;;;0.20;;
14736;SDS011;7459;53.590;10.062;2022-09-01T15:57:02;3.20;;;0.20;;
14736;SDS011;7459;53.590;10.062;2022-09-01T15:59:30;2.50;;;0.30;;
14736;SDS011;7459;53.590;10.062;2022-09-01T16:01:56;2.90;;;0.20;;
14736;SDS011;7459;53.590;10.062;2022-09-01T16:04:22;4.35;;;1.27;;
14736;SDS011;7459;53.590;10.062;2022-09-01T16:06:47;4.70;;;0.50;;
14736;SDS011;7459;53.590;10.062;2022-09-01T16:09:15;2.45;;;0.60;;
14736;SDS011;7459;53.590;10.062;2022-09-01T16:11:45;4.43;;;0.60;;
14736;SDS011;7459;53.590;10.062;2022-09-01T16:14:11;3.80;;;0.85;;
14736;SDS011;7459;53.590;10.062;2022-09-01T16:24:58;1.80;;;0.30;;
14736;SDS011;7459;53.590;10.062;2022-09-01T16:27:36;2.65;;;0.20;;
14736;SDS011;7459;53.590;10.062;2022-09-01T16:30:06;5.67;;;0.40;;
14736;SDS011;7459;53.590;10.062;2022-09-01T16:32:42;2.80;;;0.30;;
14736;SDS011;7459;53.590;10.062;2022-09-01T16:35:11;1.25;;;0.30;;
14736;SDS011;7459;53.590;10.062;2022-09-01T16:52:08;6.97;;;0.60;;
14736;SDS011;7459;53.590;10.062;2022-09-01T16:54:51;8.23;;;0.35;;
14736;SDS011;7459;53.590;10.062;2022-09-01T17:00:50;3.95;;;0.45;;
14736;SDS011;7459;53.590;10.062;2022-09-01T17:03:31;8.60;;;2.13;;
14736;SDS011;7459;53.590;10.062;2022-09-01T17:06:10;22.75;;;10.90;;
14736;SDS011;7459;53.590;10.062;2022-09-01T17:08:51;25.27;;;9.15;;
14736;SDS011;7459;53.590;10.062;2022-09-01T17:11:37;12.63;;;3.57;;
14736;SDS011;7459;53.590;10.062;2022-09-01T17:14:21;18.85;;;5.20;;
14736;SDS011;7459;53.590;10.062;2022-09-01T17:17:09;8.23;;;2.10;;
14736;SDS011;7459;53.590;10.062;2022-09-01T17:19:40;7.05;;;1.70;;
14736;SDS011;7459;53.590;10.062;2022-09-01T17:22:07;7.82;;;1.95;;
14736;SDS011;7459;53.590;10.062;2022-09-01T17:24:43;5.47;;;0.90;;